createdAt,value
2018-08-16T00:00:10.374Z,95047.80
2018-08-16T00:02:37.017Z,95043.71
2018-08-16T00:05:03.665Z,95049.95
2018-08-16T00:07:30.314Z,95047.81
2018-08-16T00:09:56.993Z,95047.02
2018-08-16T00:12:23.588Z,95038.49
2018-08-16T00:14:50.229Z,95044.94
2018-08-16T00:17:16.869Z,95038.94
2018-08-16T00:19:43.501Z,95038.56
2018-08-16T00:22:10.141Z,95038.61
2018-08-16T00:24:36.780Z,95050.08
2018-08-16T00:27:03.458Z,95044.13
2018-08-16T00:29:30.076Z,95046.80
2018-08-16T00:31:56.780Z,95046.80
2018-08-16T00:34:23.430Z,95050.03
2018-08-16T00:36:50.068Z,95049.77
2018-08-16T00:39:16.727Z,95047.44
2018-08-16T00:41:43.368Z,95048.83
2018-08-16T00:44:09.992Z,95044.89
2018-08-16T00:46:36.685Z,95042.56
2018-08-16T00:49:03.328Z,95047.77
2018-08-16T00:51:29.982Z,95046.69
2018-08-16T00:53:56.672Z,95046.61
2018-08-16T00:56:23.306Z,95047.94
2018-08-16T00:58:49.943Z,95046.31
2018-08-16T01:01:16.589Z,95049.02
2018-08-16T01:03:43.256Z,95053.25
2018-08-16T01:06:09.893Z,95053.34
2018-08-16T01:08:36.530Z,95050.55
2018-08-16T01:11:03.222Z,95045.80
2018-08-16T01:13:29.858Z,95049.09
2018-08-16T01:15:56.543Z,95053.08
2018-08-16T01:18:23.179Z,95048.20
2018-08-16T01:20:49.829Z,95050.73
2018-08-16T01:23:16.471Z,95048.09
2018-08-16T01:25:43.146Z,95044.98
2018-08-16T01:28:09.874Z,95051.72
2018-08-16T01:30:36.504Z,95050.38
2018-08-16T01:33:03.139Z,95052.44
2018-08-16T01:35:29.792Z,95053.84
2018-08-16T01:37:56.468Z,95055.00
2018-08-16T01:40:23.188Z,95044.49
2018-08-16T01:42:49.797Z,95049.75
2018-08-16T01:45:16.442Z,95045.42
2018-08-16T01:47:43.091Z,95043.80
2018-08-16T01:50:09.772Z,95046.76
2018-08-16T01:52:36.411Z,95038.28
2018-08-16T01:55:03.080Z,95034.31
2018-08-16T01:57:29.718Z,95042.03
2018-08-16T01:59:56.395Z,95039.09
2018-08-16T02:02:22.981Z,95043.80
2018-08-16T02:04:49.670Z,95040.75
2018-08-16T02:07:16.307Z,95043.16
2018-08-16T02:09:42.945Z,95038.11
2018-08-16T02:12:09.605Z,95039.50
2018-08-16T02:14:36.233Z,95046.09
2018-08-16T02:17:02.875Z,95044.00
2018-08-16T02:19:29.504Z,95044.00
2018-08-16T02:21:56.269Z,95051.26
2018-08-16T02:24:22.909Z,95044.81
2018-08-16T02:26:49.539Z,95050.01
2018-08-16T02:29:16.174Z,95046.47
2018-08-16T02:31:42.852Z,95047.22
2018-08-16T02:34:09.541Z,95053.23
2018-08-16T02:36:36.229Z,95051.02
2018-08-16T02:39:02.854Z,95057.14
2018-08-16T02:41:29.495Z,95051.34
2018-08-16T02:43:56.143Z,95049.31
2018-08-16T02:46:22.765Z,95048.06
2018-08-16T02:48:49.448Z,95007.96
2018-08-16T02:51:16.086Z,95046.09
2018-08-16T02:53:42.723Z,95051.14
2018-08-16T02:56:09.366Z,95048.13
2018-08-16T02:58:36.049Z,95046.84
2018-08-16T03:01:02.706Z,95049.11
2018-08-16T03:03:29.365Z,95047.36
2018-08-16T03:05:56.015Z,95047.68
2018-08-16T03:08:22.651Z,95042.48
2018-08-16T03:10:49.325Z,95043.74
2018-08-16T03:13:15.961Z,95045.20
2018-08-16T03:15:42.626Z,95046.06
2018-08-16T03:18:09.269Z,95053.94
2018-08-16T03:20:35.900Z,95048.80
2018-08-16T03:23:02.575Z,95056.52
2018-08-16T03:25:29.222Z,95059.42
2018-08-16T03:27:55.856Z,95061.34
2018-08-16T03:30:22.628Z,95065.77
2018-08-16T03:32:49.259Z,95071.67
2018-08-16T03:35:15.945Z,95067.57
2018-08-16T03:37:42.564Z,95069.34
2018-08-16T03:40:09.204Z,95078.88
2018-08-16T03:42:35.880Z,95079.75
2018-08-16T03:45:02.527Z,95083.23
2018-08-16T03:47:29.211Z,95092.53
2018-08-16T03:49:55.874Z,95089.88
2018-08-16T03:52:22.464Z,95093.92
2018-08-16T03:54:49.121Z,95095.57
2018-08-16T03:57:15.745Z,95099.41
2018-08-16T03:59:42.462Z,95098.86
2018-08-16T04:02:09.062Z,95089.81
2018-08-16T04:04:35.744Z,95096.19
2018-08-16T04:07:02.335Z,95097.94
2018-08-16T04:09:28.979Z,95093.41
2018-08-16T04:11:55.627Z,95095.77
2018-08-16T04:14:22.276Z,95094.06
2018-08-16T04:16:48.952Z,95095.19
2018-08-16T04:19:15.639Z,95100.33
2018-08-16T04:21:42.277Z,95097.53
2018-08-16T04:24:08.924Z,95088.82
2018-08-16T04:26:35.560Z,95089.10
2018-08-16T04:29:02.224Z,95094.55
2018-08-16T04:31:28.849Z,95095.86
2018-08-16T04:33:55.533Z,95092.25
2018-08-16T04:36:22.172Z,95098.16
2018-08-16T04:38:48.830Z,95101.06
2018-08-16T04:41:16.502Z,95102.61
2018-08-16T04:43:43.151Z,95107.33
2018-08-16T04:46:09.800Z,95107.81
2018-08-16T04:48:36.444Z,95098.95
2018-08-16T04:51:03.112Z,95109.53
2018-08-16T04:53:29.743Z,95106.52
2018-08-16T04:55:56.392Z,95110.76
2018-08-16T04:58:23.078Z,95101.81
2018-08-16T05:00:49.745Z,95104.80
2018-08-16T05:03:16.365Z,95105.73
2018-08-16T05:05:43.020Z,95110.29
2018-08-16T05:08:09.671Z,95106.36
2018-08-16T05:10:36.354Z,95109.22
2018-08-16T05:13:03.039Z,95113.17
2018-08-16T05:15:29.677Z,95122.28
2018-08-16T05:17:56.514Z,95133.33
2018-08-16T05:20:23.156Z,95116.39
2018-08-16T05:22:49.863Z,95119.44
2018-08-16T05:25:16.507Z,95115.53
2018-08-16T05:27:43.136Z,95119.08
2018-08-16T05:30:09.773Z,95130.82
2018-08-16T05:32:36.481Z,95128.50
2018-08-16T05:35:03.111Z,95127.27
2018-08-16T05:37:29.855Z,95127.21
2018-08-16T05:39:58.589Z,95126.89
2018-08-16T05:42:25.193Z,95118.00
2018-08-16T05:44:51.919Z,95127.66
2018-08-16T05:47:18.520Z,95118.20
2018-08-16T05:49:45.156Z,95116.75
2018-08-16T05:52:11.799Z,95120.52
2018-08-16T05:54:38.431Z,95119.77
2018-08-16T05:57:06.286Z,95127.23
2018-08-16T05:59:31.863Z,95118.31
2018-08-16T06:01:58.448Z,95119.86
2018-08-16T06:04:27.721Z,95120.79
2018-08-16T06:06:54.384Z,95125.42
2018-08-16T06:09:21.025Z,95125.12
2018-08-16T06:11:47.734Z,95117.84
2018-08-16T06:14:14.372Z,95112.39
2018-08-16T06:16:41.097Z,95111.34
2018-08-16T06:19:07.749Z,95111.73
2018-08-16T06:21:34.452Z,95107.30
2018-08-16T06:24:01.114Z,95101.00
2018-08-16T06:26:27.772Z,95103.70
2018-08-16T06:28:54.408Z,95108.22
2018-08-16T06:31:21.183Z,95109.55
2018-08-16T06:33:47.832Z,95096.65
2018-08-16T06:36:14.492Z,95101.78
2018-08-16T06:38:41.231Z,95100.44
2018-08-16T06:41:07.862Z,95098.84
2018-08-16T06:43:34.567Z,95108.69
2018-08-16T06:46:01.233Z,95092.65
2018-08-16T06:48:27.874Z,95101.30
2018-08-16T06:50:54.549Z,95100.95
2018-08-16T06:53:21.205Z,95101.30
2018-08-16T06:55:47.890Z,95104.28
2018-08-16T06:58:14.556Z,95106.36
2018-08-16T07:00:41.227Z,95111.64
2018-08-16T07:03:07.913Z,95110.75
2018-08-16T07:05:34.552Z,95105.50
2018-08-16T07:08:01.271Z,95115.39
2018-08-16T07:10:27.922Z,95111.35
2018-08-16T07:12:54.604Z,95102.83
2018-08-16T07:15:21.265Z,95104.91
2018-08-16T07:17:47.960Z,95099.44
2018-08-16T07:20:14.670Z,95106.30
2018-08-16T07:22:41.372Z,95107.25
2018-08-16T07:25:08.026Z,95102.84
2018-08-16T07:27:34.714Z,95109.47
2018-08-16T07:30:01.523Z,95106.23
2018-08-16T07:32:28.136Z,95106.68
2018-08-16T07:34:54.808Z,95103.89
2018-08-16T07:37:21.444Z,95099.17
2018-08-16T07:39:48.097Z,95092.84
2018-08-16T07:42:14.789Z,95092.39
2018-08-16T07:44:41.847Z,95092.04
2018-08-16T07:47:08.503Z,95093.59
2018-08-16T07:49:35.198Z,95092.13
2018-08-16T07:52:01.940Z,95091.01
2018-08-16T07:54:28.607Z,95092.33
2018-08-16T07:56:55.377Z,95092.74
2018-08-16T07:59:21.988Z,95093.88
2018-08-16T08:01:48.640Z,95089.47
2018-08-16T08:04:15.316Z,95087.94
2018-08-16T08:06:41.953Z,95083.92
2018-08-16T08:09:08.839Z,95084.27
2018-08-16T08:11:35.291Z,95082.08
2018-08-16T08:14:01.958Z,95076.66
2018-08-16T08:16:28.606Z,95084.45
2018-08-16T08:18:58.153Z,95092.80
2018-08-16T08:21:24.865Z,95085.78
2018-08-16T08:23:51.541Z,95077.33
2018-08-16T08:26:18.240Z,95084.56
2018-08-16T08:28:44.865Z,95083.09
2018-08-16T08:31:11.570Z,95077.85
2018-08-16T08:33:38.245Z,95073.73
2018-08-16T08:36:04.892Z,95069.96
2018-08-16T08:38:31.597Z,95070.30
2018-08-16T08:40:58.188Z,95069.77
2018-08-16T08:43:24.828Z,95068.64
2018-08-16T08:45:51.575Z,95066.23
2018-08-16T08:48:18.421Z,95069.53
2018-08-16T08:50:45.102Z,95073.56
2018-08-16T08:53:11.739Z,95065.10
2018-08-16T08:55:38.434Z,95069.86
2018-08-16T08:58:05.118Z,95062.73
2018-08-16T09:00:31.764Z,95066.31
2018-08-16T09:03:00.589Z,95057.75
2018-08-16T09:05:25.088Z,95059.48
2018-08-16T09:07:51.730Z,95060.56
2018-08-16T09:10:18.365Z,95061.49
2018-08-16T09:12:45.011Z,95057.60
2018-08-16T09:15:11.656Z,95052.66
2018-08-16T09:17:38.333Z,95053.87
2018-08-16T09:20:05.004Z,95053.56
2018-08-16T09:22:31.735Z,95055.67
2018-08-16T09:24:58.397Z,95051.27
2018-08-16T09:27:26.440Z,95057.78
2018-08-16T09:29:51.937Z,95057.99
2018-08-16T09:32:18.567Z,95055.14
2018-08-16T09:34:46.664Z,95033.70
2018-08-16T09:37:11.851Z,95050.70
2018-08-16T09:39:38.656Z,95037.64
2018-08-16T09:42:05.188Z,95045.29
2018-08-16T09:44:31.824Z,95039.62
2018-08-16T09:46:58.551Z,95043.00
2018-08-16T09:49:25.217Z,95038.99
2018-08-16T09:51:51.844Z,95042.27
2018-08-16T09:54:18.503Z,95044.95
2018-08-16T09:56:45.146Z,95036.40
2018-08-16T09:59:11.782Z,95042.86
2018-08-16T10:01:38.478Z,95037.98
2018-08-16T10:04:05.160Z,95032.67
2018-08-16T10:06:31.772Z,95036.30
2018-08-16T10:08:58.461Z,95020.62
2018-08-16T10:11:25.101Z,95022.09
2018-08-16T10:13:51.783Z,95022.23
2018-08-16T10:16:18.587Z,95025.38
2018-08-16T10:18:45.526Z,95021.61
2018-08-16T10:21:12.209Z,95013.30
2018-08-16T10:23:38.836Z,95022.04
2018-08-16T10:26:05.541Z,95014.89
2018-08-16T10:28:32.285Z,95013.30
2018-08-16T10:30:58.926Z,95016.06
2018-08-16T10:33:25.596Z,95011.48
2018-08-16T10:35:52.262Z,95013.25
2018-08-16T10:38:18.915Z,95022.22
2018-08-16T10:40:45.679Z,95018.86
2018-08-16T10:43:12.319Z,95008.95
2018-08-16T10:45:39.006Z,95002.02
2018-08-16T10:48:05.646Z,95007.04
2018-08-16T10:50:32.398Z,95003.89
2018-08-16T10:52:59.088Z,94995.77
2018-08-16T10:55:25.805Z,94999.25
2018-08-16T10:57:52.511Z,94994.84
2018-08-16T11:00:19.149Z,94994.80
2018-08-16T11:02:45.788Z,94989.29
2018-08-16T11:05:12.435Z,94995.13
2018-08-16T11:07:39.327Z,94993.41
2018-08-16T11:10:05.849Z,94999.48
2018-08-16T11:12:32.503Z,94990.23
2018-08-16T11:14:59.170Z,94988.38
2018-08-16T11:17:25.841Z,94986.20
2018-08-16T11:19:52.594Z,94978.05
2018-08-16T11:22:19.244Z,94987.22
2018-08-16T11:24:45.893Z,94987.48
2018-08-16T11:27:12.571Z,94986.65
2018-08-16T11:29:39.214Z,94986.12
2018-08-16T11:32:05.997Z,94990.98
2018-08-16T11:34:32.665Z,94985.41
2018-08-16T11:36:59.359Z,94983.41
2018-08-16T11:39:25.995Z,94980.88
2018-08-16T11:41:52.715Z,94961.43
2018-08-16T11:44:19.387Z,94978.87
2018-08-16T11:46:46.093Z,94976.84
2018-08-16T11:49:12.750Z,94971.30
2018-08-16T11:51:39.416Z,94970.66
2018-08-16T11:54:06.064Z,94977.22
2018-08-16T11:56:32.753Z,94974.09
2018-08-16T11:58:59.388Z,94976.13
2018-08-16T12:01:26.084Z,94970.80
2018-08-16T12:03:52.719Z,94976.98
2018-08-16T12:06:19.382Z,94973.45
2018-08-16T12:08:45.997Z,94971.16
2018-08-16T12:11:12.690Z,94970.55
2018-08-16T12:13:39.351Z,94970.36
2018-08-16T12:16:06.089Z,94960.89
2018-08-16T12:18:32.790Z,94965.95
2018-08-16T12:20:59.438Z,94962.33
2018-08-16T12:23:26.132Z,94953.39
2018-08-16T12:25:52.823Z,94962.21
2018-08-16T12:28:19.470Z,94958.06
2018-08-16T12:30:54.360Z,94958.19
2018-08-16T12:33:21.005Z,94954.25
2018-08-16T12:35:47.638Z,94952.94
2018-08-16T12:38:14.273Z,94953.48
2018-08-16T12:40:40.967Z,94950.07
2018-08-16T12:43:07.741Z,94953.06
2018-08-16T12:45:34.331Z,94945.31
2018-08-16T12:48:00.967Z,94941.60
2018-08-16T12:50:27.618Z,94939.67
2018-08-16T12:52:54.265Z,94939.59
2018-08-16T12:55:20.942Z,94932.34
2018-08-16T12:57:47.544Z,94931.73
2018-08-16T13:00:14.181Z,94935.18
2018-08-16T13:02:40.843Z,94932.77
2018-08-16T13:05:07.481Z,94928.44
2018-08-16T13:07:34.135Z,94928.19
2018-08-16T13:10:00.819Z,94924.67
2018-08-16T13:12:27.499Z,94927.12
2018-08-16T13:14:54.124Z,94914.65
2018-08-16T13:17:20.737Z,94922.75
2018-08-16T13:19:47.785Z,94926.22
2018-08-16T13:22:14.430Z,94929.30
2018-08-16T13:24:41.068Z,94928.14
2018-08-16T13:27:07.730Z,94926.36
2018-08-16T13:29:34.343Z,94924.63
2018-08-16T13:32:01.007Z,94919.20
2018-08-16T13:34:27.610Z,94914.65
2018-08-16T13:36:54.250Z,94916.30
2018-08-16T13:39:20.924Z,94914.16
2018-08-16T13:41:47.520Z,94918.12
2018-08-16T13:44:14.158Z,94907.73
2018-08-16T13:46:40.798Z,94909.13
2018-08-16T13:49:07.471Z,94915.48
2018-08-16T13:51:34.095Z,94911.47
2018-08-16T13:54:00.753Z,94907.20
2018-08-16T13:56:27.433Z,94906.75
2018-08-16T13:58:54.064Z,94901.41
2018-08-16T14:01:20.709Z,94899.87
2018-08-16T14:03:47.341Z,94897.50
2018-08-16T14:06:13.998Z,94903.00
2018-08-16T14:08:40.639Z,94902.98
2018-08-16T14:11:07.273Z,94908.39
2018-08-16T14:13:33.918Z,94908.69
2018-08-16T14:16:00.556Z,94909.84
2018-08-16T14:18:27.256Z,94909.52
2018-08-16T14:20:53.867Z,94912.52
2018-08-16T14:23:20.507Z,94906.48
2018-08-16T14:25:47.147Z,94905.56
2018-08-16T14:28:13.802Z,94902.84
2018-08-16T14:30:40.464Z,94899.77
2018-08-16T14:33:07.109Z,94902.91
2018-08-16T14:35:34.998Z,94903.56
2018-08-16T14:38:01.639Z,94906.66
2018-08-16T14:40:28.338Z,94902.39
2018-08-16T14:42:55.007Z,94908.42
2018-08-16T14:45:21.612Z,94907.91
2018-08-16T14:47:48.292Z,94908.52
2018-08-16T14:50:14.890Z,94909.97
2018-08-16T14:52:41.550Z,94909.09
2018-08-16T14:55:08.188Z,94915.86
2018-08-16T14:57:34.830Z,94910.33
2018-08-16T15:00:01.472Z,94913.62
2018-08-16T15:02:28.113Z,94903.79
2018-08-16T15:04:54.741Z,94913.11
2018-08-16T15:07:21.396Z,94912.69
2018-08-16T15:09:48.069Z,94909.52
2018-08-16T15:12:14.665Z,94910.91
2018-08-16T15:14:41.352Z,94913.70
2018-08-16T15:17:07.966Z,94914.91
2018-08-16T15:19:34.610Z,94914.81
2018-08-16T15:22:01.244Z,94914.66
2018-08-16T15:24:27.879Z,94911.67
2018-08-16T15:26:54.517Z,94906.75
2018-08-16T15:29:21.210Z,94906.70
2018-08-16T15:31:47.894Z,94890.30
2018-08-16T15:34:14.548Z,94908.45
2018-08-16T15:36:41.197Z,94908.84
2018-08-16T15:39:07.841Z,94909.08
2018-08-16T15:41:34.484Z,94901.44
2018-08-16T15:44:01.136Z,94904.02
2018-08-16T15:46:27.825Z,94903.34
2018-08-16T15:48:54.461Z,94904.58
2018-08-16T15:51:21.084Z,94908.00
2018-08-16T15:53:47.737Z,94909.89
2018-08-16T15:56:14.408Z,94904.08
2018-08-16T15:58:43.233Z,94898.86
2018-08-16T16:01:09.876Z,94899.52
2018-08-16T16:03:36.523Z,94901.37
2018-08-16T16:06:03.246Z,94904.17
2018-08-16T16:08:29.786Z,94910.88
2018-08-16T16:10:56.412Z,94908.50
2018-08-16T16:13:23.076Z,94911.55
2018-08-16T16:15:49.726Z,94910.13
2018-08-16T16:18:16.426Z,94917.81
2018-08-16T16:20:43.075Z,94913.81
2018-08-16T16:23:09.711Z,94907.34
2018-08-16T16:25:36.397Z,94910.31
2018-08-16T16:28:03.024Z,94917.40
2018-08-16T16:30:29.662Z,94912.50
2018-08-16T16:32:56.305Z,94915.29
2018-08-16T16:35:22.959Z,94913.59
2018-08-16T16:37:49.598Z,94917.23
2018-08-16T16:40:16.242Z,94917.28
2018-08-16T16:42:42.889Z,94910.61
2018-08-16T16:45:09.553Z,94917.36
2018-08-16T16:47:36.181Z,94926.11
2018-08-16T16:50:02.824Z,94925.05
2018-08-16T16:52:29.446Z,94919.77
2018-08-16T16:54:56.095Z,94931.17
2018-08-16T16:57:22.720Z,94926.20
2018-08-16T16:59:49.360Z,94930.05
2018-08-16T17:02:16.047Z,94930.08
2018-08-16T17:04:42.737Z,94926.91
2018-08-16T17:07:09.486Z,94931.24
2018-08-16T17:09:36.087Z,94927.20
2018-08-16T17:12:02.739Z,94928.62
2018-08-16T17:14:29.409Z,94934.50
2018-08-16T17:16:56.028Z,94936.98
2018-08-16T17:19:22.673Z,94926.67
2018-08-16T17:21:49.351Z,94937.14
2018-08-16T17:24:15.992Z,94930.99
2018-08-16T17:26:42.622Z,94937.12
2018-08-16T17:29:09.266Z,94944.51
2018-08-16T17:31:35.911Z,94942.03
2018-08-16T17:34:02.595Z,94945.61
2018-08-16T17:36:29.241Z,94954.52
2018-08-16T17:38:55.868Z,94947.16
2018-08-16T17:41:22.559Z,94952.61
2018-08-16T17:43:49.191Z,94957.74
2018-08-16T17:46:15.824Z,94956.13
2018-08-16T17:48:42.459Z,94958.81
2018-08-16T17:51:09.100Z,94962.09
2018-08-16T17:53:35.740Z,94961.04
2018-08-16T17:56:02.386Z,94967.22
2018-08-16T17:58:29.059Z,94968.13
2018-08-16T18:00:55.800Z,94962.92
2018-08-16T18:03:22.339Z,94967.41
2018-08-16T18:05:48.993Z,94967.41
2018-08-16T18:08:15.680Z,94970.50
2018-08-16T18:10:42.336Z,94975.44
2018-08-16T18:13:09.141Z,94977.41
2018-08-16T18:15:35.747Z,94979.81
2018-08-16T18:18:02.412Z,94979.47
2018-08-16T18:20:29.078Z,94985.29
2018-08-16T18:22:55.691Z,94988.46
2018-08-16T18:25:22.329Z,94991.89
2018-08-16T18:27:49.001Z,94994.02
2018-08-16T18:30:15.636Z,94997.56
2018-08-16T18:32:42.297Z,95004.43
2018-08-16T18:35:08.944Z,95004.20
2018-08-16T18:37:35.583Z,95004.16
2018-08-16T18:40:02.223Z,95010.36
2018-08-16T18:42:28.911Z,95013.19
2018-08-16T18:44:55.600Z,95010.20
2018-08-16T18:47:22.144Z,95014.73
2018-08-16T18:49:48.785Z,95019.75
2018-08-16T18:52:15.421Z,95018.66
2018-08-16T18:54:42.112Z,95019.61
2018-08-16T18:57:08.755Z,95020.20
2018-08-16T18:59:35.513Z,95019.04
2018-08-16T19:02:02.075Z,95019.53
2018-08-16T19:04:28.721Z,95023.98
2018-08-16T19:06:55.405Z,95018.51
2018-08-16T19:09:22.042Z,95021.64
2018-08-16T19:11:48.678Z,95013.75
2018-08-16T19:14:15.320Z,95021.16
2018-08-16T19:16:41.959Z,95019.00
2018-08-16T19:19:08.603Z,95016.81
2018-08-16T19:21:35.228Z,95019.98
2018-08-16T19:24:01.874Z,95018.21
2018-08-16T19:26:28.547Z,95014.09
2018-08-16T19:28:55.228Z,95016.59
2018-08-16T19:31:21.863Z,95016.97
2018-08-16T19:33:48.575Z,95014.66
2018-08-16T19:36:15.205Z,95011.05
2018-08-16T19:38:41.831Z,95008.94
2018-08-16T19:41:08.524Z,95009.05
2018-08-16T19:43:35.136Z,95011.69
2018-08-16T19:46:01.775Z,95015.27
2018-08-16T19:48:28.488Z,95013.50
2018-08-16T19:50:55.099Z,95021.03
2018-08-16T19:53:21.747Z,95015.27
2018-08-16T19:55:48.388Z,95019.80
2018-08-16T19:58:15.035Z,95017.19
2018-08-16T20:00:41.669Z,95012.45
2018-08-16T20:03:08.314Z,95017.34
2018-08-16T20:05:34.966Z,95015.58
2018-08-16T20:08:01.603Z,95020.92
2018-08-16T20:10:28.227Z,95019.65
2018-08-16T20:12:54.913Z,95016.06
2018-08-16T20:15:21.549Z,95016.97
2018-08-16T20:17:48.197Z,95015.27
2018-08-16T20:20:14.842Z,95014.10
2018-08-16T20:22:41.476Z,95020.66
2018-08-16T20:25:08.156Z,95024.05
2018-08-16T20:27:34.756Z,95022.66
2018-08-16T20:30:01.394Z,95023.83
2018-08-16T20:32:28.027Z,95026.96
2018-08-16T20:34:54.662Z,95030.00
2018-08-16T20:37:21.298Z,95036.16
2018-08-16T20:39:47.984Z,95037.52
2018-08-16T20:42:14.615Z,95032.69
2018-08-16T20:44:41.312Z,95038.11
2018-08-16T20:47:07.953Z,95036.11
2018-08-16T20:49:34.606Z,95039.35
2018-08-16T20:52:01.245Z,95043.31
2018-08-16T20:54:27.930Z,95042.08
2018-08-16T20:56:54.609Z,95040.75
2018-08-16T20:59:21.244Z,95037.89
2018-08-16T21:01:47.880Z,95040.56
2018-08-16T21:04:14.554Z,95038.91
2018-08-16T21:06:41.242Z,95044.34
2018-08-16T21:09:07.880Z,95042.14
2018-08-16T21:11:34.632Z,95036.25
2018-08-16T21:14:01.290Z,95037.16
2018-08-16T21:16:27.938Z,95041.45
2018-08-16T21:18:54.613Z,95036.98
2018-08-16T21:21:21.229Z,95040.86
2018-08-16T21:23:47.914Z,95038.25
2018-08-16T21:26:14.546Z,95035.20
2018-08-16T21:28:41.242Z,95036.67
2018-08-16T21:31:07.880Z,95036.34
2018-08-16T21:33:34.541Z,95036.36
2018-08-16T21:36:01.183Z,95040.81
2018-08-16T21:38:27.887Z,95045.00
2018-08-16T21:40:54.507Z,95041.67
2018-08-16T21:43:21.194Z,95044.53
2018-08-16T21:45:47.837Z,95042.02
2018-08-16T21:48:14.469Z,95046.69
2018-08-16T21:50:41.110Z,95047.78
2018-08-16T21:53:07.786Z,95040.39
2018-08-16T21:55:34.460Z,95038.91
2018-08-16T21:58:01.088Z,95040.69
2018-08-16T22:00:27.764Z,95039.66
2018-08-16T22:02:54.404Z,95037.14
2018-08-16T22:05:21.168Z,95035.86
2018-08-16T22:07:47.807Z,95037.03
2018-08-16T22:10:14.488Z,95045.02
2018-08-16T22:12:41.119Z,95045.95
2018-08-16T22:15:07.768Z,95047.55
2018-08-16T22:17:34.443Z,95052.06
2018-08-16T22:20:01.087Z,95051.86
2018-08-16T22:22:27.735Z,95048.20
2018-08-16T22:24:54.409Z,95049.07
2018-08-16T22:27:21.048Z,95052.23
2018-08-16T22:29:47.729Z,95054.27
2018-08-16T22:32:14.354Z,95042.89
2018-08-16T22:34:41.039Z,95046.23
2018-08-16T22:37:07.686Z,95040.48
2018-08-16T22:39:34.354Z,95051.05
2018-08-16T22:42:01.025Z,95047.03
2018-08-16T22:44:27.638Z,95053.09
2018-08-16T22:46:54.302Z,95045.97
2018-08-16T22:49:20.934Z,95047.09
2018-08-16T22:51:48.976Z,95049.55
2018-08-16T22:54:14.248Z,95042.58
2018-08-16T22:56:40.934Z,95044.24
2018-08-16T22:59:07.629Z,95050.83
2018-08-16T23:01:34.337Z,95053.09
2018-08-16T23:04:00.981Z,95052.30
2018-08-16T23:06:27.625Z,95059.38
2018-08-16T23:08:54.261Z,95061.02
2018-08-16T23:11:20.938Z,95061.27
2018-08-16T23:13:47.536Z,95062.76
2018-08-16T23:16:14.170Z,95065.73
2018-08-16T23:18:40.806Z,95052.94
2018-08-16T23:21:07.443Z,95056.55
2018-08-16T23:23:34.085Z,95053.31
2018-08-16T23:26:00.734Z,95046.90
2018-08-16T23:28:27.370Z,95053.75
2018-08-16T23:30:54.002Z,95054.39
2018-08-16T23:33:20.654Z,95053.82
2018-08-16T23:35:47.335Z,95049.69
2018-08-16T23:38:13.976Z,95059.39
2018-08-16T23:40:40.667Z,95059.17
2018-08-16T23:43:07.301Z,95059.81
2018-08-16T23:45:33.940Z,95063.47
2018-08-16T23:48:00.585Z,95059.08
2018-08-16T23:50:27.263Z,95058.38
2018-08-16T23:52:53.939Z,95056.12
2018-08-16T23:55:20.573Z,95056.61
2018-08-16T23:57:47.249Z,95061.05
